KEAT/EAT METAR and TAF weather

Enter ICAO airport designator
Station Type Date Time Source
KEAT METAR 2021/09/16 20:55 UTC NOAA

KEAT 162055Z AUTO 11007KT 080V150 10SM CLR 19/M04 A3010 RMK AO2 SLP189 T01891044 58019


Station Type Date Time Source
KEAT Decoded METAR 2021/09/16 20:55 UTC NOAA

WENATCHEE PANGBORN MEMO, WA, United States (KEAT) 47-24N 120-12W 377M
Sep 16, 2021 - 04:55 PM EDT / 2021.09.16 2055 UTC
Wind: from the ESE (110 degrees) at 8 MPH (7 KT) (direction variable):0
Visibility: 10 mile(s):0
Sky conditions: clear
Temperature: 66.0 F (18.9 C)
Dew Point: 24.1 F (-4.4 C)
Relative Humidity: 20%
Pressure (altimeter): 30.1 in. Hg (1019 hPa)
Pressure tendency: 0.06 inches (1.9 hPa) lower than three hours ago
ob: KEAT 162055Z AUTO 11007KT 080V150 10SM CLR 19/M04 A3010 RMK AO2 SLP189 T01891044 58019
cycle: 21

Station Type Date Time Source
KEAT TAF 2021/09/16 18:36 UTC NOAA

TAF KEAT 161735Z 1618/1718 VRB04KT P6SM SKC
FM161900 12005KT P6SM SKC
FM170200 VRB04KT P6SM SCT250
FM170700 29006KT P6SM SCT150 OVC200
FM171200 27005KT P6SM SCT070 OVC100 PROB30 1715/1718 -RA BKN070 OVC100

Example: see airport list